In Rescue
 
Open Full Screen Window  High Contrast Mode
January 22, 2020 4:55 PM CST
Weather Information
Wind Direction
  ---
Wind Speed
  00 kt (0 mph)
Wind Gust
  00 kt (0 mph)
Altimeter
29.84 in
Visibility
7 SM
Temperature
-04° C
25° F
Dewpoint
-06° C
21° F
Humidity
86%
1hr Rain Fall
00.00 in.
24hr Rain Fall
00.00 in.
Sky Condition
Overcast @ 1,500 ft
MVFR

METAR KELO 222255Z AUTO 00000KT 7SM OVC015 M04/M06 A2984 RMK AO2

FAA Disclaimer: The data displayed is for advisory purposes only and is not to be used for flight planning or operations.